createdAt,value
2018-09-08T00:00:41.754Z,99307.39
2018-09-08T00:03:08.926Z,99301.27
2018-09-08T00:05:36.091Z,99311.89
2018-09-08T00:08:03.259Z,99300.60
2018-09-08T00:10:30.392Z,99309.55
2018-09-08T00:12:57.549Z,99309.47
2018-09-08T00:15:31.251Z,99309.09
2018-09-08T00:18:04.123Z,99309.77
2018-09-08T00:20:36.866Z,99315.75
2018-09-08T00:23:09.632Z,99311.66
2018-09-08T00:25:42.549Z,99312.36
2018-09-08T00:28:17.960Z,99314.45
2018-09-08T00:30:45.109Z,99316.28
2018-09-08T00:33:12.280Z,99324.25
2018-09-08T00:35:39.461Z,99321.63
2018-09-08T00:38:06.604Z,99320.35
2018-09-08T00:40:34.118Z,99324.56
2018-09-08T00:43:01.241Z,99321.02
2018-09-08T00:45:28.390Z,99318.63
2018-09-08T00:47:55.545Z,99328.27
2018-09-08T00:50:22.710Z,99326.66
2018-09-08T00:52:49.843Z,99334.23
2018-09-08T00:55:17.178Z,99335.38
2018-09-08T00:57:44.389Z,99338.89
2018-09-08T01:00:11.527Z,99344.84
2018-09-08T01:02:38.753Z,99340.84
2018-09-08T01:05:05.921Z,99348.26
2018-09-08T01:07:33.078Z,99351.81
2018-09-08T01:10:01.270Z,99346.83
2018-09-08T01:12:29.221Z,99344.95
2018-09-08T01:14:56.486Z,99351.03
2018-09-08T01:17:25.828Z,99351.31
2018-09-08T01:19:53.186Z,99351.91
2018-09-08T01:22:20.368Z,99349.20
2018-09-08T01:24:47.517Z,99360.11
2018-09-08T01:27:14.660Z,99357.75
2018-09-08T01:29:41.798Z,99359.37
2018-09-08T01:32:08.955Z,99363.39
2018-09-08T01:34:36.110Z,99368.71
2018-09-08T01:37:03.221Z,99367.99
2018-09-08T01:39:30.623Z,99369.91
2018-09-08T01:41:57.954Z,99369.10
2018-09-08T01:44:25.069Z,99361.37
2018-09-08T01:46:52.229Z,99359.80
2018-09-08T01:49:19.377Z,99364.07
2018-09-08T01:51:46.533Z,99360.85
2018-09-08T01:54:13.658Z,99359.30
2018-09-08T01:56:40.830Z,99357.98
2018-09-08T01:59:08.171Z,99357.47
2018-09-08T02:01:35.347Z,99362.25
2018-09-08T02:04:02.507Z,99366.76
2018-09-08T02:06:29.716Z,99368.92
2018-09-08T02:08:56.885Z,99364.72
2018-09-08T02:11:24.014Z,99362.88
2018-09-08T02:13:51.369Z,99361.53
2018-09-08T02:16:18.479Z,99364.25
2018-09-08T02:18:45.883Z,99361.84
2018-09-08T02:21:13.197Z,99360.81
2018-09-08T02:23:40.353Z,99359.77
2018-09-08T02:26:07.483Z,99355.05
2018-09-08T02:28:34.635Z,99352.44
2018-09-08T02:31:01.954Z,99362.53
2018-09-08T02:33:29.082Z,99354.81
2018-09-08T02:35:56.205Z,99360.66
2018-09-08T02:38:23.338Z,99362.79
2018-09-08T02:40:50.503Z,99357.76
2018-09-08T02:43:17.608Z,99368.66
2018-09-08T02:45:44.749Z,99370.52
2018-09-08T02:48:11.949Z,99331.84
2018-09-08T02:50:39.969Z,99363.65
2018-09-08T02:53:08.091Z,99368.16
2018-09-08T02:55:34.561Z,99367.07
2018-09-08T02:58:00.873Z,99363.69
2018-09-08T03:00:27.553Z,99368.71
2018-09-08T03:02:53.950Z,99366.86
2018-09-08T03:05:20.399Z,99367.39
2018-09-08T03:07:46.723Z,99368.47
2018-09-08T03:10:13.165Z,99370.86
2018-09-08T03:12:39.477Z,99370.06
2018-09-08T03:15:05.686Z,99379.88
2018-09-08T03:17:32.469Z,99379.88
2018-09-08T03:19:58.664Z,99379.34
2018-09-08T03:22:24.911Z,99383.07
2018-09-08T03:24:51.091Z,99378.58
2018-09-08T03:27:17.583Z,99384.66
2018-09-08T03:29:43.752Z,99382.00
2018-09-08T03:32:09.941Z,99392.89
2018-09-08T03:34:36.111Z,99391.58
2018-09-08T03:37:02.343Z,99391.30
2018-09-08T03:39:28.486Z,99392.36
2018-09-08T03:41:54.678Z,99397.14
2018-09-08T03:44:20.879Z,99387.05
2018-09-08T03:46:47.101Z,99387.06
2018-09-08T03:49:13.414Z,99390.50
2018-09-08T03:51:39.680Z,99384.13
2018-09-08T03:54:05.827Z,99385.73
2018-09-08T03:56:32.309Z,99389.17
2018-09-08T03:58:58.571Z,99390.22
2018-09-08T04:01:24.715Z,99392.08
2018-09-08T04:03:51.822Z,99390.50
2018-09-08T04:06:18.996Z,99396.33
2018-09-08T04:08:46.297Z,99396.86
2018-09-08T04:11:13.703Z,99390.22
2018-09-08T04:13:40.807Z,99389.17
2018-09-08T04:16:08.134Z,99398.17
2018-09-08T04:18:35.432Z,99401.60
2018-09-08T04:21:02.563Z,99401.33
2018-09-08T04:23:30.142Z,99402.37
2018-09-08T04:25:57.498Z,99403.95
2018-09-08T04:28:24.704Z,99406.87
2018-09-08T04:30:51.953Z,99409.00
2018-09-08T04:33:19.125Z,99412.97
2018-09-08T04:35:46.268Z,99413.20
2018-09-08T04:38:13.415Z,99412.38
2018-09-08T04:40:40.568Z,99415.61
2018-09-08T04:43:08.021Z,99416.13
2018-09-08T04:45:35.110Z,99422.69
2018-09-08T04:48:02.302Z,99422.06
2018-09-08T04:50:29.472Z,99427.08
2018-09-08T04:52:56.611Z,99425.98
2018-09-08T04:55:23.753Z,99431.82
2018-09-08T04:57:50.909Z,99429.42
2018-09-08T05:00:18.067Z,99425.12
2018-09-08T05:02:45.216Z,99425.70
2018-09-08T05:05:12.339Z,99432.61
2018-09-08T05:07:39.472Z,99431.26
2018-09-08T05:10:06.626Z,99439.14
2018-09-08T05:12:33.746Z,99439.16
2018-09-08T05:15:01.026Z,99443.98
2018-09-08T05:17:28.169Z,99450.37
2018-09-08T05:19:55.322Z,99446.91
2018-09-08T05:22:22.411Z,99439.47
2018-09-08T05:24:49.575Z,99442.37
2018-09-08T05:27:16.677Z,99440.02
2018-09-08T05:29:44.528Z,99439.23
2018-09-08T05:32:11.666Z,99438.15
2018-09-08T05:34:38.798Z,99441.09
2018-09-08T05:37:05.937Z,99444.80
2018-09-08T05:39:33.073Z,99448.81
2018-09-08T05:42:00.193Z,99445.39
2018-09-08T05:44:27.458Z,99445.59
2018-09-08T05:46:54.570Z,99436.05
2018-09-08T05:49:22.315Z,99447.72
2018-09-08T05:51:50.617Z,99439.31
2018-09-08T05:54:17.876Z,99445.97
2018-09-08T05:56:45.110Z,99451.31
2018-09-08T05:59:12.306Z,99453.70
2018-09-08T06:01:39.497Z,99460.54
2018-09-08T06:04:06.887Z,99462.42
2018-09-08T06:06:35.715Z,99458.70
2018-09-08T06:09:03.337Z,99461.16
2018-09-08T06:11:31.413Z,99462.16
2018-09-08T06:13:58.578Z,99463.70
2018-09-08T06:16:26.641Z,99464.83
2018-09-08T06:18:53.785Z,99465.89
2018-09-08T06:21:20.923Z,99470.36
2018-09-08T06:23:48.080Z,99471.47
2018-09-08T06:26:15.262Z,99471.55
2018-09-08T06:28:42.680Z,99462.25
2018-09-08T06:31:09.630Z,99464.36
2018-09-08T06:33:36.979Z,99470.77
2018-09-08T06:36:05.803Z,99466.78
2018-09-08T06:38:33.047Z,99476.06
2018-09-08T06:41:00.416Z,99472.12
2018-09-08T06:43:28.377Z,99475.59
2018-09-08T06:45:55.512Z,99473.75
2018-09-08T06:48:24.073Z,99475.63
2018-09-08T06:50:51.258Z,99472.70
2018-09-08T06:53:18.411Z,99475.89
2018-09-08T06:55:45.560Z,99475.89
2018-09-08T06:58:12.912Z,99476.97
2018-09-08T07:00:40.070Z,99485.20
2018-09-08T07:03:08.454Z,99485.74
2018-09-08T07:05:35.653Z,99487.59
2018-09-08T07:08:02.866Z,99485.73
2018-09-08T07:10:30.145Z,99488.11
2018-09-08T07:12:57.580Z,99480.72
2018-09-08T07:15:24.730Z,99482.55
2018-09-08T07:17:51.918Z,99484.92
2018-09-08T07:20:19.055Z,99483.05
2018-09-08T07:22:46.396Z,99483.56
2018-09-08T07:25:13.602Z,99484.04
2018-09-08T07:27:41.632Z,99487.45
2018-09-08T07:30:08.829Z,99490.35
2018-09-08T07:32:35.978Z,99490.05
2018-09-08T07:35:03.181Z,99495.83
2018-09-08T07:37:30.417Z,99499.30
2018-09-08T07:39:58.306Z,99492.86
2018-09-08T07:42:25.550Z,99500.67
2018-09-08T07:44:52.700Z,99501.48
2018-09-08T07:47:19.818Z,99497.73
2018-09-08T07:49:46.993Z,99489.91
2018-09-08T07:52:14.154Z,99492.13
2018-09-08T07:54:41.368Z,99494.03
2018-09-08T07:57:08.827Z,99496.66
2018-09-08T07:59:35.994Z,99499.98
2018-09-08T08:02:03.126Z,99493.20
2018-09-08T08:04:30.279Z,99497.70
2018-09-08T08:06:57.408Z,99497.41
2018-09-08T08:09:24.578Z,99492.64
2018-09-08T08:11:51.789Z,99488.27
2018-09-08T08:14:19.001Z,99491.27
2018-09-08T08:16:46.215Z,99486.41
2018-09-08T08:19:13.361Z,99482.63
2018-09-08T08:21:40.595Z,99483.85
2018-09-08T08:24:07.809Z,99479.14
2018-09-08T08:26:35.241Z,99489.05
2018-09-08T08:29:02.588Z,99484.39
2018-09-08T08:31:29.834Z,99480.51
2018-09-08T08:33:57.022Z,99481.45
2018-09-08T08:36:24.568Z,99479.45
2018-09-08T08:38:51.945Z,99483.77
2018-09-08T08:41:20.008Z,99482.83
2018-09-08T08:43:47.210Z,99477.08
2018-09-08T08:46:14.493Z,99472.45
2018-09-08T08:48:41.633Z,99469.45
2018-09-08T08:51:20.234Z,99469.61
2018-09-08T08:53:58.801Z,99474.70
2018-09-08T08:56:25.949Z,99475.51
2018-09-08T08:58:55.079Z,99468.52
2018-09-08T09:01:23.062Z,99472.95
2018-09-08T09:03:50.366Z,99474.57
2018-09-08T09:06:17.573Z,99477.09
2018-09-08T09:08:45.195Z,99475.52
2018-09-08T09:11:12.122Z,99472.45
2018-09-08T09:13:39.559Z,99474.13
2018-09-08T09:16:06.698Z,99469.41
2018-09-08T09:18:45.969Z,99472.98
2018-09-08T09:21:24.394Z,99469.91
2018-09-08T09:25:02.475Z,99466.34
2018-09-08T09:27:36.666Z,99467.63
2018-09-08T09:30:04.167Z,99469.19
2018-09-08T09:32:31.361Z,99458.13
2018-09-08T09:34:58.581Z,99459.03
2018-09-08T09:37:25.826Z,99454.01
2018-09-08T09:39:56.339Z,99452.83
2018-09-08T09:42:24.110Z,99455.62
2018-09-08T09:44:51.266Z,99458.13
2018-09-08T09:47:18.471Z,99447.38
2018-09-08T09:49:45.915Z,99459.13
2018-09-08T09:52:13.297Z,99455.61
2018-09-08T09:54:40.525Z,99457.19
2018-09-08T09:57:07.721Z,99458.84
2018-09-08T09:59:35.012Z,99453.96
2018-09-08T10:02:07.793Z,99455.67
2018-09-08T10:04:35.270Z,99453.31
2018-09-08T10:07:02.667Z,99450.92
2018-09-08T10:09:29.981Z,99450.44
2018-09-08T10:11:57.158Z,99441.91
2018-09-08T10:14:24.298Z,99450.31
2018-09-08T10:16:51.478Z,99449.96
2018-09-08T10:19:18.657Z,99443.80
2018-09-08T10:21:45.876Z,99446.55
2018-09-08T10:24:13.566Z,99441.18
2018-09-08T10:26:40.701Z,99447.55
2018-09-08T10:29:08.073Z,99444.48
2018-09-08T10:31:42.741Z,99435.84
2018-09-08T10:34:09.930Z,99441.52
2018-09-08T10:36:37.191Z,99440.18
2018-09-08T10:39:05.778Z,99436.42
2018-09-08T10:41:32.984Z,99433.16
2018-09-08T10:44:00.158Z,99427.32
2018-09-08T10:46:27.332Z,99429.48
2018-09-08T10:48:54.870Z,99420.94
2018-09-08T10:51:48.175Z,99415.98
2018-09-08T10:54:15.922Z,99424.81
2018-09-08T10:56:43.176Z,99414.84
2018-09-08T10:59:10.486Z,99417.57
2018-09-08T11:01:37.949Z,99412.91
2018-09-08T11:04:05.874Z,99411.50
2018-09-08T11:06:33.323Z,99406.17
2018-09-08T11:09:00.630Z,99400.64
2018-09-08T11:11:28.066Z,99406.81
2018-09-08T11:13:55.681Z,99404.13
2018-09-08T11:16:22.983Z,99403.50
2018-09-08T11:18:50.170Z,99403.17
2018-09-08T11:21:17.345Z,99407.10
2018-09-08T11:23:44.942Z,99415.91
2018-09-08T11:26:12.179Z,99270.98
2018-09-08T11:28:39.514Z,99412.57
2018-09-08T11:31:06.653Z,99413.42
2018-09-08T11:33:33.899Z,99408.03
2018-09-08T11:36:01.660Z,99399.17
2018-09-08T11:38:29.267Z,99399.15
2018-09-08T11:40:56.370Z,99402.66
2018-09-08T11:43:24.611Z,99397.72
2018-09-08T11:45:51.911Z,99406.25
2018-09-08T11:48:19.009Z,99404.88
2018-09-08T11:50:46.879Z,99403.92
2018-09-08T11:53:14.138Z,99400.09
2018-09-08T11:55:41.357Z,99402.16
2018-09-08T11:58:08.537Z,99406.87
2018-09-08T12:00:35.870Z,99408.17
2018-09-08T12:03:03.047Z,99406.53
2018-09-08T12:05:30.189Z,99404.30
2018-09-08T12:07:57.390Z,99400.02
2018-09-08T12:10:24.684Z,99392.88
2018-09-08T12:12:51.884Z,99391.72
2018-09-08T12:15:19.089Z,99386.56
2018-09-08T12:17:46.222Z,99391.67
2018-09-08T12:20:13.389Z,99392.41
2018-09-08T12:22:40.653Z,99387.27
2018-09-08T12:25:07.860Z,99387.72
2018-09-08T12:27:35.023Z,99386.67
2018-09-08T12:30:02.227Z,99378.49
2018-09-08T12:32:29.409Z,99384.84
2018-09-08T12:34:56.611Z,99386.05
2018-09-08T12:37:23.831Z,99383.95
2018-09-08T12:39:50.973Z,99371.38
2018-09-08T12:42:18.123Z,99373.63
2018-09-08T12:44:45.322Z,99380.89
2018-09-08T12:47:12.593Z,99376.23
2018-09-08T12:49:39.822Z,99372.20
2018-09-08T12:52:07.020Z,99368.73
2018-09-08T12:54:34.149Z,99372.66
2018-09-08T12:57:02.110Z,99373.78
2018-09-08T12:59:29.333Z,99365.79
2018-09-08T13:01:56.512Z,99372.41
2018-09-08T13:04:23.763Z,99365.22
2018-09-08T13:06:51.742Z,99362.81
2018-09-08T13:09:18.918Z,99363.70
2018-09-08T13:11:46.189Z,99357.17
2018-09-08T13:14:13.354Z,99349.70
2018-09-08T13:16:40.536Z,99356.23
2018-09-08T13:19:07.798Z,99352.41
2018-09-08T13:21:34.983Z,99350.37
2018-09-08T13:24:02.498Z,99347.30
2018-09-08T13:26:29.702Z,99349.48
2018-09-08T13:28:57.066Z,99337.83
2018-09-08T13:31:24.346Z,99337.74
2018-09-08T13:33:51.551Z,99335.70
2018-09-08T13:36:18.683Z,99331.06
2018-09-08T13:38:45.877Z,99328.52
2018-09-08T13:41:13.004Z,99322.51
2018-09-08T13:43:40.206Z,99320.53
2018-09-08T13:46:07.490Z,99322.27
2018-09-08T13:48:36.245Z,99337.01
2018-09-08T13:51:03.435Z,99327.72
2018-09-08T13:53:30.630Z,99333.56
2018-09-08T13:55:57.926Z,99326.73
2018-09-08T13:58:31.901Z,99326.37
2018-09-08T14:00:59.035Z,99324.09
2018-09-08T14:03:26.251Z,99319.17
2018-09-08T14:05:53.464Z,99313.41
2018-09-08T14:08:20.657Z,99307.22
2018-09-08T14:10:47.938Z,99308.42
2018-09-08T14:13:15.166Z,99313.76
2018-09-08T14:15:42.366Z,99311.84
2018-09-08T14:18:09.542Z,99278.69
2018-09-08T14:20:37.167Z,99309.34
2018-09-08T14:23:04.544Z,99308.07
2018-09-08T14:25:31.962Z,99306.56
2018-09-08T14:27:59.095Z,99307.17
2018-09-08T14:30:26.772Z,99299.94
2018-09-08T14:32:53.996Z,99305.58
2018-09-08T14:35:21.155Z,99304.08
2018-09-08T14:37:48.303Z,99307.78
2018-09-08T14:40:15.573Z,99309.42
2018-09-08T14:42:43.863Z,99308.21
2018-09-08T14:45:11.026Z,99308.64
2018-09-08T14:47:38.376Z,99313.81
2018-09-08T14:50:05.934Z,99300.37
2018-09-08T14:52:33.113Z,99290.54
2018-09-08T14:55:00.271Z,99299.58
2018-09-08T14:57:27.623Z,99300.38
2018-09-08T14:59:54.787Z,99299.73
2018-09-08T15:02:22.939Z,99299.67
2018-09-08T15:04:50.267Z,99302.66
2018-09-08T15:07:17.352Z,99306.44
2018-09-08T15:09:44.474Z,99303.36
2018-09-08T15:12:11.695Z,99298.75
2018-09-08T15:14:39.024Z,99303.57
2018-09-08T15:17:06.341Z,99302.41
2018-09-08T15:19:33.501Z,99304.94
2018-09-08T15:22:00.617Z,99303.59
2018-09-08T15:24:27.938Z,99307.83
2018-09-08T15:26:55.216Z,99305.45
2018-09-08T15:29:23.184Z,99305.45
2018-09-08T15:31:51.291Z,99302.17
2018-09-08T15:34:18.455Z,99313.14
2018-09-08T15:36:46.362Z,99310.23
2018-09-08T15:39:13.739Z,99315.03
2018-09-08T15:41:40.898Z,99316.27
2018-09-08T15:44:09.182Z,99314.72
2018-09-08T15:46:36.430Z,99316.94
2018-09-08T15:49:03.675Z,99316.41
2018-09-08T15:51:30.942Z,99320.44
2018-09-08T15:53:58.248Z,99308.05
2018-09-08T15:56:25.462Z,99308.55
2018-09-08T15:58:52.952Z,99307.80
2018-09-08T16:01:20.140Z,99309.61
2018-09-08T16:03:47.701Z,99310.95
2018-09-08T16:06:14.862Z,99312.14
2018-09-08T16:08:42.070Z,99306.86
2018-09-08T16:11:09.203Z,99310.27
2018-09-08T16:13:36.470Z,99308.55
2018-09-08T16:16:03.630Z,99310.55
2018-09-08T16:18:30.823Z,99303.34
2018-09-08T16:20:58.972Z,99303.17
2018-09-08T16:23:26.230Z,99303.30
2018-09-08T16:25:53.422Z,99296.30
2018-09-08T16:28:20.523Z,99295.30
2018-09-08T16:30:47.785Z,99291.73
2018-09-08T16:33:16.134Z,99291.20
2018-09-08T16:35:43.356Z,99291.59
2018-09-08T16:38:10.614Z,99292.55
2018-09-08T16:40:38.002Z,99293.27
2018-09-08T16:43:05.273Z,99293.23
2018-09-08T16:45:32.481Z,99293.12
2018-09-08T16:47:59.731Z,99295.38
2018-09-08T16:50:27.025Z,99293.66
2018-09-08T16:52:54.354Z,99295.84
2018-09-08T16:55:21.528Z,99294.58
2018-09-08T16:57:48.698Z,99214.65
2018-09-08T17:00:16.233Z,99293.34
2018-09-08T17:02:43.438Z,99289.05
2018-09-08T17:05:10.639Z,99285.63
2018-09-08T17:07:37.826Z,99284.09
2018-09-08T17:10:06.918Z,99279.33
2018-09-08T17:12:34.086Z,99278.40
2018-09-08T17:15:01.217Z,99281.19
2018-09-08T17:17:28.366Z,99278.28
2018-09-08T17:19:55.873Z,99282.36
2018-09-08T17:22:23.130Z,99279.99
2018-09-08T17:24:50.302Z,99276.25
2018-09-08T17:27:17.676Z,99282.91
2018-09-08T17:29:44.810Z,99285.58
2018-09-08T17:32:11.976Z,99279.64
2018-09-08T17:34:39.127Z,99286.55
2018-09-08T17:37:06.335Z,99294.26
2018-09-08T17:39:33.491Z,99286.94
2018-09-08T17:42:00.737Z,99288.14
2018-09-08T17:44:27.912Z,99292.17
2018-09-08T17:46:55.088Z,99293.14
2018-09-08T17:49:22.194Z,99289.31
2018-09-08T17:51:49.874Z,99288.42
2018-09-08T17:54:17.017Z,99296.22
2018-09-08T17:56:44.222Z,99292.06
2018-09-08T17:59:11.513Z,99290.58
2018-09-08T18:01:38.655Z,99294.41
2018-09-08T18:04:06.193Z,99294.16
2018-09-08T18:06:34.070Z,99296.16
2018-09-08T18:09:01.312Z,99295.03
2018-09-08T18:11:28.503Z,99290.70
2018-09-08T18:13:55.657Z,99290.30
2018-09-08T18:16:22.889Z,99297.45
2018-09-08T18:18:50.108Z,99296.70
2018-09-08T18:21:18.227Z,99303.70
2018-09-08T18:23:45.457Z,99303.09
2018-09-08T18:26:13.593Z,99305.27
2018-09-08T18:28:40.855Z,99307.48
2018-09-08T18:31:08.205Z,99302.78
2018-09-08T18:33:35.434Z,99312.69
2018-09-08T18:36:02.612Z,99307.73
2018-09-08T18:38:30.610Z,99312.64
2018-09-08T18:40:57.911Z,99310.64
2018-09-08T18:43:25.179Z,99316.14
2018-09-08T18:45:53.198Z,99313.55
2018-09-08T18:48:20.532Z,99316.45
2018-09-08T18:50:48.323Z,99320.02
2018-09-08T18:53:15.577Z,99322.31
2018-09-08T18:55:43.647Z,99322.10
2018-09-08T18:58:11.126Z,99328.56
2018-09-08T19:00:38.970Z,99329.32
2018-09-08T19:03:08.451Z,99333.26
2018-09-08T19:05:36.007Z,99329.14
2018-09-08T19:08:03.232Z,99307.03
2018-09-08T19:10:34.225Z,99322.80
2018-09-08T19:13:02.061Z,99327.05
2018-09-08T19:15:30.071Z,99327.63
2018-09-08T19:17:57.279Z,99320.44
2018-09-08T19:20:30.218Z,99326.57
2018-09-08T19:22:57.489Z,99328.07
2018-09-08T19:25:24.666Z,99331.32
2018-09-08T19:27:52.276Z,99331.80
2018-09-08T19:30:19.445Z,99329.63
2018-09-08T19:32:46.598Z,99331.99
2018-09-08T19:35:19.442Z,99332.94
2018-09-08T19:37:47.350Z,99333.02
2018-09-08T19:40:20.225Z,99336.00
2018-09-08T19:42:47.502Z,99338.13
2018-09-08T19:45:14.692Z,99337.29
2018-09-08T19:47:47.567Z,99335.48
2018-09-08T19:50:14.869Z,99342.29
2018-09-08T19:52:48.282Z,99343.34
2018-09-08T19:55:15.418Z,99338.22
2018-09-08T19:57:48.342Z,99337.56
2018-09-08T20:00:15.582Z,99337.95
2018-09-08T20:02:43.131Z,99336.98
2018-09-08T20:05:10.415Z,99339.89
2018-09-08T20:07:38.356Z,99336.72
2018-09-08T20:10:05.616Z,99336.20
2018-09-08T20:12:32.853Z,99343.05
2018-09-08T20:15:00.031Z,99338.60
2018-09-08T20:17:27.235Z,99331.66
2018-09-08T20:19:54.445Z,99337.94
2018-09-08T20:22:21.889Z,99338.92
2018-09-08T20:24:49.109Z,99335.63
2018-09-08T20:27:16.308Z,99344.53
2018-09-08T20:29:43.423Z,99345.47
2018-09-08T20:32:10.696Z,99346.05
2018-09-08T20:34:37.927Z,99341.69
2018-09-08T20:37:05.419Z,99337.59
2018-09-08T20:39:32.609Z,99334.41
2018-09-08T20:42:00.283Z,99342.17
2018-09-08T20:44:27.569Z,99336.31
2018-09-08T20:46:56.314Z,99344.28
2018-09-08T20:49:23.794Z,99338.56
2018-09-08T20:51:50.965Z,99337.92
2018-09-08T20:54:18.114Z,99327.23
2018-09-08T20:56:45.280Z,99335.36
2018-09-08T20:59:13.465Z,99326.67
2018-09-08T21:01:40.646Z,99336.13
2018-09-08T21:04:07.867Z,99325.45
2018-09-08T21:06:35.115Z,99331.47
2018-09-08T21:09:02.759Z,99330.44
2018-09-08T21:11:30.012Z,99332.69
2018-09-08T21:13:57.205Z,99331.66
2018-09-08T21:16:24.370Z,99331.12
2018-09-08T21:18:51.534Z,99334.86
2018-09-08T21:21:18.690Z,99332.63
2018-09-08T21:23:45.885Z,99336.70
2018-09-08T21:26:13.046Z,99341.23
2018-09-08T21:28:40.233Z,99340.76
2018-09-08T21:31:08.398Z,99342.25
2018-09-08T21:33:35.574Z,99341.22
2018-09-08T21:36:02.749Z,99349.21
2018-09-08T21:38:29.890Z,99344.59
2018-09-08T21:40:57.062Z,99349.27
2018-09-08T21:43:24.261Z,99346.78
2018-09-08T21:45:51.384Z,99346.37
2018-09-08T21:48:18.582Z,99349.95
2018-09-08T21:50:45.767Z,99346.13
2018-09-08T21:53:12.942Z,99351.28
2018-09-08T21:55:40.153Z,99344.86
2018-09-08T21:58:07.340Z,99348.14
2018-09-08T22:00:34.693Z,99352.97
2018-09-08T22:03:02.364Z,99354.56
2018-09-08T22:05:29.731Z,99348.23
2018-09-08T22:07:56.951Z,99353.23
2018-09-08T22:10:24.199Z,99346.25
2018-09-08T22:12:54.706Z,99345.06
2018-09-08T22:15:23.238Z,99348.14
2018-09-08T22:17:50.451Z,99349.16
2018-09-08T22:20:17.843Z,99342.92
2018-09-08T22:22:45.141Z,99348.28
2018-09-08T22:25:12.798Z,99345.09
2018-09-08T22:27:42.503Z,99345.23
2018-09-08T22:30:10.051Z,99350.78
2018-09-08T22:32:37.253Z,99352.72
2018-09-08T22:35:04.389Z,99356.10
2018-09-08T22:37:31.555Z,99361.67
2018-09-08T22:39:59.447Z,99361.67
2018-09-08T22:42:26.561Z,99364.58
2018-09-08T22:44:53.808Z,99359.35
2018-09-08T22:47:27.738Z,99358.23
2018-09-08T22:49:54.986Z,99357.70
2018-09-08T22:52:22.171Z,99364.07
2018-09-08T22:54:49.327Z,99364.31
2018-09-08T22:57:16.491Z,99363.88
2018-09-08T22:59:43.672Z,99359.25
2018-09-08T23:02:10.838Z,99366.59
2018-09-08T23:04:38.030Z,99366.81
2018-09-08T23:07:05.198Z,99365.77
2018-09-08T23:09:32.326Z,99371.83
2018-09-08T23:11:59.458Z,99369.19
2018-09-08T23:14:26.671Z,99378.23
2018-09-08T23:16:53.838Z,99374.33
2018-09-08T23:19:21.002Z,99381.72
2018-09-08T23:21:48.223Z,99375.02
2018-09-08T23:24:15.386Z,99376.66
2018-09-08T23:26:42.574Z,99376.72
2018-09-08T23:29:09.795Z,99372.47
2018-09-08T23:31:36.978Z,99375.68
2018-09-08T23:34:04.101Z,99380.72
2018-09-08T23:36:31.322Z,99383.66
2018-09-08T23:38:58.437Z,99376.50
2018-09-08T23:41:25.617Z,99379.38
2018-09-08T23:43:52.774Z,99376.39
2018-09-08T23:46:19.930Z,99371.07
2018-09-08T23:48:47.071Z,99377.47
2018-09-08T23:51:14.329Z,99375.88
2018-09-08T23:53:41.483Z,99378.80
2018-09-08T23:56:08.647Z,99385.47
2018-09-08T23:58:35.854Z,99383.17
